
<gpx xmlns="http://www.topografix.com/GPX/1/1" xmlns:gpxx="http://www.garmin.com/xmlschemas/GpxExtensions/v3" xmlns:xsi="http://www.w3.org/2001/XMLSchema-instance" version="1.1" creator="Adze - http://kobotsw.com/apps/adze" xsi:schemaLocation="http://www.topografix.com/GPX/1/1 http://www.topografix.com/GPX/1/1/gpx.xsd http://www.garmin.com/xmlschemas/GpxExtensions/v3 http://www.garmin.com/xmlschemas/GpxExtensionsv3.xsd">
    <metadata>
        <name>Untitled Document</name>
        <link href="http://www.garmin.com"></link>
        <time>2018-02-26T06:43:36.656Z</time>
    </metadata>
    <wpt lon="101.048413" lat="12.924216">
        <ele>138.000000</ele>
        <name>PattayaCountryClub</name>
        <cmt>27-JUN-14 15:31:10</cmt>
        <desc>27-JUN-14 15:31:10</desc>
        <sym>Lodging</sym>
        <extensions>
            <gpxx:WaypointExtension xmlns:gpxx="http://www.garmin.com/xmlschemas/GpxExtensions/v3">
                <gpxx:DisplayMode>SymbolAndName</gpxx:DisplayMode>
            </gpxx:WaypointExtension>
        </extensions>
    </wpt>
    <wpt lon="101.055341" lat="12.892778">
        <ele>112.000000</ele>
        <name>WaterSun</name>
        <cmt>29-JUN-14 11:16:32</cmt>
        <desc>29-JUN-14 11:16:32</desc>
        <sym>Drinking Water</sym>
        <extensions>
            <gpxx:WaypointExtension xmlns:gpxx="http://www.garmin.com/xmlschemas/GpxExtensions/v3">
                <gpxx:DisplayMode>SymbolAndName</gpxx:DisplayMode>
            </gpxx:WaypointExtension>
        </extensions>
    </wpt>
    <trk>
        <name>Sunday</name>
        <extensions>
            <gpxx:TrackExtension xmlns:gpxx="http://www.garmin.com/xmlschemas/GpxExtensions/v3">
                <gpxx:DisplayColor>Green</gpxx:DisplayColor>
            </gpxx:TrackExtension>
        </extensions>
        <trkseg>
            <trkpt lon="101.046455" lat="12.921927">
                <ele>148.180420</ele>
                <time>2014-06-29T02:40:35Z</time>
            </trkpt>
            <trkpt lon="101.046936" lat="12.921797">
                <ele>137.125244</ele>
                <time>2014-06-29T02:59:37Z</time>
            </trkpt>
            <trkpt lon="101.047824" lat="12.920660">
                <ele>134.241211</ele>
                <time>2014-06-29T03:00:08Z</time>
            </trkpt>
            <trkpt lon="101.049758" lat="12.920128">
                <ele>128.473389</ele>
                <time>2014-06-29T03:00:34Z</time>
            </trkpt>
            <trkpt lon="101.050281" lat="12.919629">
                <ele>126.550659</ele>
                <time>2014-06-29T03:00:44Z</time>
            </trkpt>
            <trkpt lon="101.050753" lat="12.918256">
                <ele>124.147339</ele>
                <time>2014-06-29T03:01:06Z</time>
            </trkpt>
            <trkpt lon="101.051234" lat="12.917169">
                <ele>120.302124</ele>
                <time>2014-06-29T03:01:25Z</time>
            </trkpt>
            <trkpt lon="101.051727" lat="12.916640">
                <ele>117.898804</ele>
                <time>2014-06-29T03:01:36Z</time>
            </trkpt>
            <trkpt lon="101.052797" lat="12.916273">
                <ele>117.898804</ele>
                <time>2014-06-29T03:01:53Z</time>
            </trkpt>
            <trkpt lon="101.054141" lat="12.916076">
                <ele>118.860107</ele>
                <time>2014-06-29T03:02:14Z</time>
            </trkpt>
            <trkpt lon="101.055361" lat="12.916178">
                <ele>117.418213</ele>
                <time>2014-06-29T03:02:33Z</time>
            </trkpt>
            <trkpt lon="101.056322" lat="12.915926">
                <ele>115.495605</ele>
                <time>2014-06-29T03:02:48Z</time>
            </trkpt>
            <trkpt lon="101.056875" lat="12.915554">
                <ele>114.534180</ele>
                <time>2014-06-29T03:02:59Z</time>
            </trkpt>
            <trkpt lon="101.057045" lat="12.915471">
                <ele>113.572998</ele>
                <time>2014-06-29T03:03:08Z</time>
            </trkpt>
            <trkpt lon="101.057183" lat="12.916125">
                <ele>110.688843</ele>
                <time>2014-06-29T03:03:31Z</time>
            </trkpt>
            <trkpt lon="101.057429" lat="12.916555">
                <ele>108.766235</ele>
                <time>2014-06-29T03:03:47Z</time>
            </trkpt>
            <trkpt lon="101.057782" lat="12.916865">
                <ele>109.727661</ele>
                <time>2014-06-29T03:04:03Z</time>
            </trkpt>
            <trkpt lon="101.060799" lat="12.918275">
                <ele>117.418213</ele>
                <time>2014-06-29T03:06:05Z</time>
            </trkpt>
            <trkpt lon="101.062004" lat="12.919077">
                <ele>115.014893</ele>
                <time>2014-06-29T03:06:38Z</time>
            </trkpt>
            <trkpt lon="101.062699" lat="12.919511">
                <ele>111.169556</ele>
                <time>2014-06-29T03:06:55Z</time>
            </trkpt>
            <trkpt lon="101.062821" lat="12.919637">
                <ele>110.688843</ele>
                <time>2014-06-29T03:07:00Z</time>
            </trkpt>
            <trkpt lon="101.062887" lat="12.919525">
                <ele>110.208252</ele>
                <time>2014-06-29T03:07:08Z</time>
            </trkpt>
            <trkpt lon="101.061524" lat="12.918694">
                <ele>117.418213</ele>
                <time>2014-06-29T03:08:35Z</time>
            </trkpt>
            <trkpt lon="101.061035" lat="12.918277">
                <ele>118.379395</ele>
                <time>2014-06-29T03:09:06Z</time>
            </trkpt>
            <trkpt lon="101.061941" lat="12.917145">
                <ele>115.976196</ele>
                <time>2014-06-29T03:09:51Z</time>
            </trkpt>
            <trkpt lon="101.061690" lat="12.916989">
                <ele>114.534180</ele>
                <time>2014-06-29T03:10:02Z</time>
            </trkpt>
            <trkpt lon="101.061706" lat="12.916844">
                <ele>113.572998</ele>
                <time>2014-06-29T03:10:08Z</time>
            </trkpt>
            <trkpt lon="101.062374" lat="12.916166">
                <ele>111.169556</ele>
                <time>2014-06-29T03:10:39Z</time>
            </trkpt>
            <trkpt lon="101.062813" lat="12.916052">
                <ele>110.208252</ele>
                <time>2014-06-29T03:10:58Z</time>
            </trkpt>
            <trkpt lon="101.063304" lat="12.915126">
                <ele>102.998291</ele>
                <time>2014-06-29T03:11:36Z</time>
            </trkpt>
            <trkpt lon="101.062783" lat="12.914888">
                <ele>103.959717</ele>
                <time>2014-06-29T03:12:11Z</time>
            </trkpt>
            <trkpt lon="101.062733" lat="12.914429">
                <ele>113.092285</ele>
                <time>2014-06-29T03:15:24Z</time>
            </trkpt>
            <trkpt lon="101.061867" lat="12.913167">
                <ele>120.302124</ele>
                <time>2014-06-29T03:16:39Z</time>
            </trkpt>
            <trkpt lon="101.060899" lat="12.913765">
                <ele>119.340820</ele>
                <time>2014-06-29T03:17:11Z</time>
            </trkpt>
            <trkpt lon="101.059832" lat="12.914402">
                <ele>114.053589</ele>
                <time>2014-06-29T03:17:42Z</time>
            </trkpt>
            <trkpt lon="101.059894" lat="12.913533">
                <ele>115.014893</ele>
                <time>2014-06-29T03:18:20Z</time>
            </trkpt>
            <trkpt lon="101.059626" lat="12.912814">
                <ele>127.031372</ele>
                <time>2014-06-29T03:18:59Z</time>
            </trkpt>
            <trkpt lon="101.059470" lat="12.912432">
                <ele>130.395996</ele>
                <time>2014-06-29T03:19:17Z</time>
            </trkpt>
            <trkpt lon="101.059439" lat="12.912020">
                <ele>131.837891</ele>
                <time>2014-06-29T03:19:37Z</time>
            </trkpt>
            <trkpt lon="101.060411" lat="12.911212">
                <ele>127.511963</ele>
                <time>2014-06-29T03:23:50Z</time>
            </trkpt>
            <trkpt lon="101.060874" lat="12.910797">
                <ele>117.418213</ele>
                <time>2014-06-29T03:24:58Z</time>
            </trkpt>
            <trkpt lon="101.061229" lat="12.911195">
                <ele>115.976196</ele>
                <time>2014-06-29T03:25:29Z</time>
            </trkpt>
            <trkpt lon="101.061201" lat="12.911291">
                <ele>117.898804</ele>
                <time>2014-06-29T03:25:57Z</time>
            </trkpt>
            <trkpt lon="101.061460" lat="12.911895">
                <ele>119.340820</ele>
                <time>2014-06-29T03:26:23Z</time>
            </trkpt>
            <trkpt lon="101.061602" lat="12.911920">
                <ele>119.340820</ele>
                <time>2014-06-29T03:26:29Z</time>
            </trkpt>
            <trkpt lon="101.062310" lat="12.911859">
                <ele>114.053589</ele>
                <time>2014-06-29T03:26:59Z</time>
            </trkpt>
            <trkpt lon="101.061498" lat="12.911950">
                <ele>117.418213</ele>
                <time>2014-06-29T03:27:48Z</time>
            </trkpt>
            <trkpt lon="101.060957" lat="12.910861">
                <ele>116.937500</ele>
                <time>2014-06-29T03:28:31Z</time>
            </trkpt>
            <trkpt lon="101.060619" lat="12.910482">
                <ele>115.014893</ele>
                <time>2014-06-29T03:28:50Z</time>
            </trkpt>
            <trkpt lon="101.062923" lat="12.909101">
                <ele>104.440430</ele>
                <time>2014-06-29T03:30:29Z</time>
            </trkpt>
            <trkpt lon="101.062645" lat="12.908799">
                <ele>103.959717</ele>
                <time>2014-06-29T03:30:57Z</time>
            </trkpt>
            <trkpt lon="101.062911" lat="12.909046">
                <ele>103.959717</ele>
                <time>2014-06-29T03:31:52Z</time>
            </trkpt>
            <trkpt lon="101.062809" lat="12.909204">
                <ele>104.921020</ele>
                <time>2014-06-29T03:32:08Z</time>
            </trkpt>
            <trkpt lon="101.061580" lat="12.909852">
                <ele>106.363037</ele>
                <time>2014-06-29T03:33:21Z</time>
            </trkpt>
            <trkpt lon="101.060952" lat="12.909052">
                <ele>105.401733</ele>
                <time>2014-06-29T03:34:06Z</time>
            </trkpt>
            <trkpt lon="101.060898" lat="12.908926">
                <ele>104.440430</ele>
                <time>2014-06-29T03:34:19Z</time>
            </trkpt>
            <trkpt lon="101.061030" lat="12.908845">
                <ele>105.401733</ele>
                <time>2014-06-29T03:34:53Z</time>
            </trkpt>
            <trkpt lon="101.061231" lat="12.908665">
                <ele>104.440430</ele>
                <time>2014-06-29T03:35:35Z</time>
            </trkpt>
            <trkpt lon="101.061057" lat="12.908536">
                <ele>104.921020</ele>
                <time>2014-06-29T03:37:27Z</time>
            </trkpt>
            <trkpt lon="101.061064" lat="12.908518">
                <ele>103.959717</ele>
                <time>2014-06-29T03:37:46Z</time>
            </trkpt>
            <trkpt lon="101.061442" lat="12.907952">
                <ele>104.921020</ele>
                <time>2014-06-29T03:39:24Z</time>
            </trkpt>
            <trkpt lon="101.061579" lat="12.907957">
                <ele>104.921020</ele>
                <time>2014-06-29T03:39:31Z</time>
            </trkpt>
            <trkpt lon="101.062220" lat="12.907936">
                <ele>102.517700</ele>
                <time>2014-06-29T03:39:52Z</time>
            </trkpt>
            <trkpt lon="101.062244" lat="12.907805">
                <ele>102.037109</ele>
                <time>2014-06-29T03:39:57Z</time>
            </trkpt>
            <trkpt lon="101.061230" lat="12.905403">
                <ele>102.998291</ele>
                <time>2014-06-29T03:41:23Z</time>
            </trkpt>
            <trkpt lon="101.060935" lat="12.905058">
                <ele>103.479004</ele>
                <time>2014-06-29T03:41:38Z</time>
            </trkpt>
            <trkpt lon="101.060113" lat="12.904540">
                <ele>104.921020</ele>
                <time>2014-06-29T03:42:13Z</time>
            </trkpt>
            <trkpt lon="101.059091" lat="12.905150">
                <ele>110.688843</ele>
                <time>2014-06-29T03:43:20Z</time>
            </trkpt>
            <trkpt lon="101.058697" lat="12.905244">
                <ele>112.611572</ele>
                <time>2014-06-29T03:43:44Z</time>
            </trkpt>
            <trkpt lon="101.058293" lat="12.904948">
                <ele>115.014893</ele>
                <time>2014-06-29T03:44:14Z</time>
            </trkpt>
            <trkpt lon="101.057707" lat="12.904841">
                <ele>117.418213</ele>
                <time>2014-06-29T03:44:46Z</time>
            </trkpt>
            <trkpt lon="101.057554" lat="12.904484">
                <ele>116.937500</ele>
                <time>2014-06-29T03:45:14Z</time>
            </trkpt>
            <trkpt lon="101.057595" lat="12.904653">
                <ele>116.456787</ele>
                <time>2014-06-29T03:45:36Z</time>
            </trkpt>
            <trkpt lon="101.057324" lat="12.904742">
                <ele>116.937500</ele>
                <time>2014-06-29T03:46:23Z</time>
            </trkpt>
            <trkpt lon="101.057311" lat="12.904756">
                <ele>116.456787</ele>
                <time>2014-06-29T03:46:38Z</time>
            </trkpt>
            <trkpt lon="101.056807" lat="12.903028">
                <ele>115.495605</ele>
                <time>2014-06-29T03:54:45Z</time>
            </trkpt>
            <trkpt lon="101.055555" lat="12.903230">
                <ele>118.860107</ele>
                <time>2014-06-29T03:55:47Z</time>
            </trkpt>
            <trkpt lon="101.055211" lat="12.903471">
                <ele>120.302124</ele>
                <time>2014-06-29T03:56:05Z</time>
            </trkpt>
            <trkpt lon="101.055002" lat="12.903531">
                <ele>120.302124</ele>
                <time>2014-06-29T03:56:15Z</time>
            </trkpt>
            <trkpt lon="101.054612" lat="12.901544">
                <ele>117.418213</ele>
                <time>2014-06-29T03:57:26Z</time>
            </trkpt>
            <trkpt lon="101.054437" lat="12.901316">
                <ele>116.456787</ele>
                <time>2014-06-29T03:57:38Z</time>
            </trkpt>
            <trkpt lon="101.052250" lat="12.902071">
                <ele>127.992554</ele>
                <time>2014-06-29T03:59:24Z</time>
            </trkpt>
            <trkpt lon="101.051911" lat="12.900592">
                <ele>125.108765</ele>
                <time>2014-06-29T04:00:14Z</time>
            </trkpt>
            <trkpt lon="101.051488" lat="12.900025">
                <ele>125.589355</ele>
                <time>2014-06-29T04:00:38Z</time>
            </trkpt>
            <trkpt lon="101.050890" lat="12.898602">
                <ele>127.031372</ele>
                <time>2014-06-29T04:01:49Z</time>
            </trkpt>
            <trkpt lon="101.048883" lat="12.899395">
                <ele>131.357300</ele>
                <time>2014-06-29T04:03:39Z</time>
            </trkpt>
            <trkpt lon="101.050886" lat="12.898596">
                <ele>127.511963</ele>
                <time>2014-06-29T04:06:53Z</time>
            </trkpt>
            <trkpt lon="101.050431" lat="12.895768">
                <ele>126.069946</ele>
                <time>2014-06-29T04:08:32Z</time>
            </trkpt>
            <trkpt lon="101.050496" lat="12.895508">
                <ele>126.069946</ele>
                <time>2014-06-29T04:08:56Z</time>
            </trkpt>
            <trkpt lon="101.050480" lat="12.894695">
                <ele>123.666748</ele>
                <time>2014-06-29T04:09:27Z</time>
            </trkpt>
            <trkpt lon="101.049164" lat="12.894918">
                <ele>127.031372</ele>
                <time>2014-06-29T04:10:07Z</time>
            </trkpt>
            <trkpt lon="101.049080" lat="12.894500">
                <ele>125.108765</ele>
                <time>2014-06-29T04:10:19Z</time>
            </trkpt>
            <trkpt lon="101.046809" lat="12.892693">
                <ele>129.434692</ele>
                <time>2014-06-29T04:11:57Z</time>
            </trkpt>
            <trkpt lon="101.046857" lat="12.892212">
                <ele>130.395996</ele>
                <time>2014-06-29T04:12:16Z</time>
            </trkpt>
            <trkpt lon="101.046879" lat="12.892183">
                <ele>133.760498</ele>
                <time>2014-06-29T04:12:31Z</time>
            </trkpt>
            <trkpt lon="101.047128" lat="12.891968">
                <ele>133.279907</ele>
                <time>2014-06-29T04:12:56Z</time>
            </trkpt>
            <trkpt lon="101.047684" lat="12.891543">
                <ele>132.318603</ele>
                <time>2014-06-29T04:13:16Z</time>
            </trkpt>
            <trkpt lon="101.047970" lat="12.891424">
                <ele>130.876709</ele>
                <time>2014-06-29T04:13:23Z</time>
            </trkpt>
            <trkpt lon="101.048656" lat="12.891596">
                <ele>128.954102</ele>
                <time>2014-06-29T04:13:40Z</time>
            </trkpt>
            <trkpt lon="101.049855" lat="12.891439">
                <ele>123.666748</ele>
                <time>2014-06-29T04:14:04Z</time>
            </trkpt>
            <trkpt lon="101.051018" lat="12.891555">
                <ele>118.379395</ele>
                <time>2014-06-29T04:14:32Z</time>
            </trkpt>
            <trkpt lon="101.052167" lat="12.891623">
                <ele>111.650269</ele>
                <time>2014-06-29T04:15:02Z</time>
            </trkpt>
            <trkpt lon="101.052429" lat="12.891815">
                <ele>110.688843</ele>
                <time>2014-06-29T04:15:09Z</time>
            </trkpt>
            <trkpt lon="101.053791" lat="12.891649">
                <ele>108.766235</ele>
                <time>2014-06-29T04:15:34Z</time>
            </trkpt>
            <trkpt lon="101.055351" lat="12.892787">
                <ele>113.092285</ele>
                <time>2014-06-29T04:16:53Z</time>
            </trkpt>
            <trkpt lon="101.055347" lat="12.892757">
                <ele>115.014893</ele>
                <time>2014-06-29T04:26:51Z</time>
            </trkpt>
            <trkpt lon="101.054520" lat="12.892240">
                <ele>110.208252</ele>
                <time>2014-06-29T04:27:20Z</time>
            </trkpt>
            <trkpt lon="101.053908" lat="12.891650">
                <ele>107.324341</ele>
                <time>2014-06-29T04:27:39Z</time>
            </trkpt>
            <trkpt lon="101.052597" lat="12.891825">
                <ele>108.766235</ele>
                <time>2014-06-29T04:28:09Z</time>
            </trkpt>
            <trkpt lon="101.052264" lat="12.891674">
                <ele>109.727661</ele>
                <time>2014-06-29T04:28:23Z</time>
            </trkpt>
            <trkpt lon="101.052119" lat="12.889688">
                <ele>113.092285</ele>
                <time>2014-06-29T04:29:32Z</time>
            </trkpt>
            <trkpt lon="101.052338" lat="12.888813">
                <ele>113.092285</ele>
                <time>2014-06-29T04:29:51Z</time>
            </trkpt>
            <trkpt lon="101.052301" lat="12.888007">
                <ele>112.611572</ele>
                <time>2014-06-29T04:30:06Z</time>
            </trkpt>
            <trkpt lon="101.052149" lat="12.887565">
                <ele>112.611572</ele>
                <time>2014-06-29T04:30:15Z</time>
            </trkpt>
            <trkpt lon="101.051540" lat="12.886891">
                <ele>113.092285</ele>
                <time>2014-06-29T04:30:35Z</time>
            </trkpt>
            <trkpt lon="101.051298" lat="12.886560">
                <ele>113.092285</ele>
                <time>2014-06-29T04:30:49Z</time>
            </trkpt>
            <trkpt lon="101.053121" lat="12.884883">
                <ele>110.208252</ele>
                <time>2014-06-29T04:31:42Z</time>
            </trkpt>
            <trkpt lon="101.053512" lat="12.884688">
                <ele>111.650269</ele>
                <time>2014-06-29T04:32:13Z</time>
            </trkpt>
            <trkpt lon="101.053786" lat="12.884284">
                <ele>114.053589</ele>
                <time>2014-06-29T04:32:49Z</time>
            </trkpt>
            <trkpt lon="101.054524" lat="12.883580">
                <ele>120.302124</ele>
                <time>2014-06-29T04:33:54Z</time>
            </trkpt>
            <trkpt lon="101.054534" lat="12.883547">
                <ele>120.302124</ele>
                <time>2014-06-29T04:33:59Z</time>
            </trkpt>
            <trkpt lon="101.054916" lat="12.883728">
                <ele>123.666748</ele>
                <time>2014-06-29T04:34:47Z</time>
            </trkpt>
            <trkpt lon="101.055006" lat="12.883942">
                <ele>125.108765</ele>
                <time>2014-06-29T04:38:12Z</time>
            </trkpt>
            <trkpt lon="101.055336" lat="12.884122">
                <ele>124.628052</ele>
                <time>2014-06-29T04:38:43Z</time>
            </trkpt>
            <trkpt lon="101.055138" lat="12.883977">
                <ele>125.108765</ele>
                <time>2014-06-29T04:39:14Z</time>
            </trkpt>
            <trkpt lon="101.055365" lat="12.883994">
                <ele>126.069946</ele>
                <time>2014-06-29T04:39:30Z</time>
            </trkpt>
            <trkpt lon="101.057457" lat="12.883955">
                <ele>130.395996</ele>
                <time>2014-06-29T04:40:59Z</time>
            </trkpt>
            <trkpt lon="101.058765" lat="12.883536">
                <ele>134.721924</ele>
                <time>2014-06-29T04:41:46Z</time>
            </trkpt>
            <trkpt lon="101.059136" lat="12.883263">
                <ele>135.202515</ele>
                <time>2014-06-29T04:42:03Z</time>
            </trkpt>
            <trkpt lon="101.059626" lat="12.882673">
                <ele>140.489868</ele>
                <time>2014-06-29T04:42:47Z</time>
            </trkpt>
            <trkpt lon="101.059766" lat="12.882450">
                <ele>140.970459</ele>
                <time>2014-06-29T04:43:01Z</time>
            </trkpt>
            <trkpt lon="101.060285" lat="12.882280">
                <ele>142.412476</ele>
                <time>2014-06-29T04:43:34Z</time>
            </trkpt>
            <trkpt lon="101.060417" lat="12.882453">
                <ele>142.412476</ele>
                <time>2014-06-29T04:43:44Z</time>
            </trkpt>
            <trkpt lon="101.061411" lat="12.884462">
                <ele>134.241211</ele>
                <time>2014-06-29T04:44:40Z</time>
            </trkpt>
            <trkpt lon="101.061787" lat="12.884877">
                <ele>135.202515</ele>
                <time>2014-06-29T04:44:59Z</time>
            </trkpt>
            <trkpt lon="101.062513" lat="12.883539">
                <ele>140.009155</ele>
                <time>2014-06-29T04:47:45Z</time>
            </trkpt>
            <trkpt lon="101.063195" lat="12.881697">
                <ele>141.451050</ele>
                <time>2014-06-29T04:49:58Z</time>
            </trkpt>
            <trkpt lon="101.063199" lat="12.881335">
                <ele>143.373657</ele>
                <time>2014-06-29T04:50:12Z</time>
            </trkpt>
            <trkpt lon="101.063792" lat="12.880885">
                <ele>144.815796</ele>
                <time>2014-06-29T04:50:47Z</time>
            </trkpt>
            <trkpt lon="101.064123" lat="12.880877">
                <ele>147.218994</ele>
                <time>2014-06-29T04:51:04Z</time>
            </trkpt>
            <trkpt lon="101.064898" lat="12.880522">
                <ele>148.180420</ele>
                <time>2014-06-29T04:51:42Z</time>
            </trkpt>
            <trkpt lon="101.066084" lat="12.879771">
                <ele>144.815796</ele>
                <time>2014-06-29T04:52:21Z</time>
            </trkpt>
            <trkpt lon="101.066200" lat="12.879853">
                <ele>144.335205</ele>
                <time>2014-06-29T04:52:25Z</time>
            </trkpt>
            <trkpt lon="101.068785" lat="12.882626">
                <ele>133.279907</ele>
                <time>2014-06-29T04:53:46Z</time>
            </trkpt>
            <trkpt lon="101.069571" lat="12.884630">
                <ele>128.954102</ele>
                <time>2014-06-29T04:54:42Z</time>
            </trkpt>
            <trkpt lon="101.069617" lat="12.884476">
                <ele>130.395996</ele>
                <time>2014-06-29T04:54:52Z</time>
            </trkpt>
            <trkpt lon="101.071530" lat="12.883754">
                <ele>143.373657</ele>
                <time>2014-06-29T04:56:39Z</time>
            </trkpt>
            <trkpt lon="101.072749" lat="12.881328">
                <ele>143.373657</ele>
                <time>2014-06-29T04:58:20Z</time>
            </trkpt>
            <trkpt lon="101.072804" lat="12.880902">
                <ele>143.854370</ele>
                <time>2014-06-29T04:58:36Z</time>
            </trkpt>
            <trkpt lon="101.071560" lat="12.879868">
                <ele>144.815796</ele>
                <time>2014-06-29T05:00:31Z</time>
            </trkpt>
            <trkpt lon="101.071804" lat="12.879014">
                <ele>148.661011</ele>
                <time>2014-06-29T05:02:09Z</time>
            </trkpt>
            <trkpt lon="101.070944" lat="12.877860">
                <ele>148.180420</ele>
                <time>2014-06-29T05:03:21Z</time>
            </trkpt>
            <trkpt lon="101.071976" lat="12.876747">
                <ele>152.986939</ele>
                <time>2014-06-29T05:05:06Z</time>
            </trkpt>
            <trkpt lon="101.072974" lat="12.878133">
                <ele>151.064209</ele>
                <time>2014-06-29T05:06:09Z</time>
            </trkpt>
            <trkpt lon="101.073968" lat="12.879442">
                <ele>144.335205</ele>
                <time>2014-06-29T05:06:46Z</time>
            </trkpt>
            <trkpt lon="101.075361" lat="12.880970">
                <ele>137.125244</ele>
                <time>2014-06-29T05:08:08Z</time>
            </trkpt>
            <trkpt lon="101.075727" lat="12.880846">
                <ele>136.163940</ele>
                <time>2014-06-29T05:08:26Z</time>
            </trkpt>
            <trkpt lon="101.077660" lat="12.882255">
                <ele>129.434692</ele>
                <time>2014-06-29T05:09:50Z</time>
            </trkpt>
            <trkpt lon="101.077692" lat="12.882261">
                <ele>131.837891</ele>
                <time>2014-06-29T05:10:09Z</time>
            </trkpt>
            <trkpt lon="101.077859" lat="12.882276">
                <ele>133.279907</ele>
                <time>2014-06-29T05:10:26Z</time>
            </trkpt>
            <trkpt lon="101.078151" lat="12.882475">
                <ele>136.644653</ele>
                <time>2014-06-29T05:10:45Z</time>
            </trkpt>
            <trkpt lon="101.079137" lat="12.882802">
                <ele>127.992554</ele>
                <time>2014-06-29T05:11:50Z</time>
            </trkpt>
            <trkpt lon="101.079731" lat="12.883377">
                <ele>122.224731</ele>
                <time>2014-06-29T05:12:19Z</time>
            </trkpt>
            <trkpt lon="101.079834" lat="12.883587">
                <ele>123.186157</ele>
                <time>2014-06-29T05:12:51Z</time>
            </trkpt>
            <trkpt lon="101.079648" lat="12.883420">
                <ele>127.992554</ele>
                <time>2014-06-29T05:13:13Z</time>
            </trkpt>
            <trkpt lon="101.079744" lat="12.883325">
                <ele>124.147339</ele>
                <time>2014-06-29T05:13:56Z</time>
            </trkpt>
            <trkpt lon="101.079716" lat="12.883315">
                <ele>127.511963</ele>
                <time>2014-06-29T05:14:30Z</time>
            </trkpt>
            <trkpt lon="101.079605" lat="12.883324">
                <ele>125.589355</ele>
                <time>2014-06-29T05:14:40Z</time>
            </trkpt>
            <trkpt lon="101.079513" lat="12.883256">
                <ele>125.108765</ele>
                <time>2014-06-29T05:14:51Z</time>
            </trkpt>
            <trkpt lon="101.079302" lat="12.883338">
                <ele>124.147339</ele>
                <time>2014-06-29T05:15:08Z</time>
            </trkpt>
            <trkpt lon="101.078437" lat="12.883934">
                <ele>120.782837</ele>
                <time>2014-06-29T05:16:43Z</time>
            </trkpt>
            <trkpt lon="101.078325" lat="12.884155">
                <ele>116.937500</ele>
                <time>2014-06-29T05:17:06Z</time>
            </trkpt>
            <trkpt lon="101.077254" lat="12.884082">
                <ele>119.340820</ele>
                <time>2014-06-29T05:17:59Z</time>
            </trkpt>
            <trkpt lon="101.076957" lat="12.884816">
                <ele>119.340820</ele>
                <time>2014-06-29T05:18:46Z</time>
            </trkpt>
            <trkpt lon="101.076739" lat="12.885123">
                <ele>120.782837</ele>
                <time>2014-06-29T05:19:02Z</time>
            </trkpt>
            <trkpt lon="101.076380" lat="12.885345">
                <ele>122.224731</ele>
                <time>2014-06-29T05:19:19Z</time>
            </trkpt>
            <trkpt lon="101.074039" lat="12.885292">
                <ele>129.915283</ele>
                <time>2014-06-29T05:20:46Z</time>
            </trkpt>
            <trkpt lon="101.073431" lat="12.885518">
                <ele>130.395996</ele>
                <time>2014-06-29T05:21:09Z</time>
            </trkpt>
            <trkpt lon="101.073008" lat="12.885833">
                <ele>131.357300</ele>
                <time>2014-06-29T05:21:28Z</time>
            </trkpt>
            <trkpt lon="101.072484" lat="12.886578">
                <ele>135.683106</ele>
                <time>2014-06-29T05:22:06Z</time>
            </trkpt>
            <trkpt lon="101.072405" lat="12.887510">
                <ele>137.605835</ele>
                <time>2014-06-29T05:22:41Z</time>
            </trkpt>
            <trkpt lon="101.072238" lat="12.887664">
                <ele>140.970459</ele>
                <time>2014-06-29T05:23:20Z</time>
            </trkpt>
            <trkpt lon="101.071834" lat="12.887803">
                <ele>139.047852</ele>
                <time>2014-06-29T05:23:31Z</time>
            </trkpt>
            <trkpt lon="101.070633" lat="12.887792">
                <ele>134.721924</ele>
                <time>2014-06-29T05:23:56Z</time>
            </trkpt>
            <trkpt lon="101.068633" lat="12.888637">
                <ele>132.799316</ele>
                <time>2014-06-29T05:24:56Z</time>
            </trkpt>
            <trkpt lon="101.067827" lat="12.889222">
                <ele>135.683106</ele>
                <time>2014-06-29T05:25:24Z</time>
            </trkpt>
            <trkpt lon="101.067276" lat="12.889976">
                <ele>140.009155</ele>
                <time>2014-06-29T05:26:00Z</time>
            </trkpt>
            <trkpt lon="101.066923" lat="12.890164">
                <ele>140.009155</ele>
                <time>2014-06-29T05:26:15Z</time>
            </trkpt>
            <trkpt lon="101.064735" lat="12.890404">
                <ele>140.489868</ele>
                <time>2014-06-29T05:27:05Z</time>
            </trkpt>
            <trkpt lon="101.063869" lat="12.890856">
                <ele>133.760498</ele>
                <time>2014-06-29T05:27:26Z</time>
            </trkpt>
            <trkpt lon="101.063324" lat="12.891253">
                <ele>129.915283</ele>
                <time>2014-06-29T05:27:40Z</time>
            </trkpt>
            <trkpt lon="101.062634" lat="12.892073">
                <ele>131.837891</ele>
                <time>2014-06-29T05:28:20Z</time>
            </trkpt>
            <trkpt lon="101.063329" lat="12.893710">
                <ele>141.451050</ele>
                <time>2014-06-29T05:29:47Z</time>
            </trkpt>
            <trkpt lon="101.063508" lat="12.894192">
                <ele>142.412476</ele>
                <time>2014-06-29T05:30:04Z</time>
            </trkpt>
            <trkpt lon="101.064150" lat="12.895773">
                <ele>134.721924</ele>
                <time>2014-06-29T05:30:51Z</time>
            </trkpt>
            <trkpt lon="101.064521" lat="12.896725">
                <ele>127.031372</ele>
                <time>2014-06-29T05:31:20Z</time>
            </trkpt>
            <trkpt lon="101.064559" lat="12.897741">
                <ele>126.069946</ele>
                <time>2014-06-29T05:31:56Z</time>
            </trkpt>
            <trkpt lon="101.065059" lat="12.898774">
                <ele>135.202515</ele>
                <time>2014-06-29T05:32:36Z</time>
            </trkpt>
            <trkpt lon="101.066364" lat="12.901280">
                <ele>140.970459</ele>
                <time>2014-06-29T05:34:01Z</time>
            </trkpt>
            <trkpt lon="101.066515" lat="12.901910">
                <ele>133.279907</ele>
                <time>2014-06-29T05:34:16Z</time>
            </trkpt>
            <trkpt lon="101.065059" lat="12.903214">
                <ele>112.611572</ele>
                <time>2014-06-29T05:35:19Z</time>
            </trkpt>
            <trkpt lon="101.065065" lat="12.903479">
                <ele>110.688843</ele>
                <time>2014-06-29T05:35:31Z</time>
            </trkpt>
            <trkpt lon="101.065412" lat="12.903777">
                <ele>109.246948</ele>
                <time>2014-06-29T05:35:44Z</time>
            </trkpt>
            <trkpt lon="101.065816" lat="12.904664">
                <ele>115.014893</ele>
                <time>2014-06-29T05:36:32Z</time>
            </trkpt>
            <trkpt lon="101.066408" lat="12.905211">
                <ele>119.821411</ele>
                <time>2014-06-29T05:37:20Z</time>
            </trkpt>
            <trkpt lon="101.066822" lat="12.905050">
                <ele>117.898804</ele>
                <time>2014-06-29T05:37:37Z</time>
            </trkpt>
            <trkpt lon="101.068787" lat="12.905319">
                <ele>124.628052</ele>
                <time>2014-06-29T05:38:49Z</time>
            </trkpt>
            <trkpt lon="101.069471" lat="12.907204">
                <ele>116.937500</ele>
                <time>2014-06-29T05:39:37Z</time>
            </trkpt>
            <trkpt lon="101.069577" lat="12.907891">
                <ele>114.053589</ele>
                <time>2014-06-29T05:40:07Z</time>
            </trkpt>
            <trkpt lon="101.069500" lat="12.909160">
                <ele>123.186157</ele>
                <time>2014-06-29T05:40:47Z</time>
            </trkpt>
            <trkpt lon="101.069440" lat="12.909574">
                <ele>122.224731</ele>
                <time>2014-06-29T05:41:03Z</time>
            </trkpt>
            <trkpt lon="101.068856" lat="12.910920">
                <ele>116.937500</ele>
                <time>2014-06-29T05:41:42Z</time>
            </trkpt>
            <trkpt lon="101.068721" lat="12.911749">
                <ele>114.534180</ele>
                <time>2014-06-29T05:42:04Z</time>
            </trkpt>
            <trkpt lon="101.068823" lat="12.912957">
                <ele>125.108765</ele>
                <time>2014-06-29T05:42:44Z</time>
            </trkpt>
            <trkpt lon="101.069617" lat="12.913155">
                <ele>137.605835</ele>
                <time>2014-06-29T05:43:41Z</time>
            </trkpt>
            <trkpt lon="101.069595" lat="12.913221">
                <ele>137.605835</ele>
                <time>2014-06-29T05:43:47Z</time>
            </trkpt>
            <trkpt lon="101.069727" lat="12.913884">
                <ele>131.357300</ele>
                <time>2014-06-29T05:44:21Z</time>
            </trkpt>
            <trkpt lon="101.070550" lat="12.913449">
                <ele>118.860107</ele>
                <time>2014-06-29T05:45:00Z</time>
            </trkpt>
            <trkpt lon="101.069764" lat="12.914048">
                <ele>115.014893</ele>
                <time>2014-06-29T05:45:35Z</time>
            </trkpt>
            <trkpt lon="101.069470" lat="12.913771">
                <ele>122.705444</ele>
                <time>2014-06-29T05:45:56Z</time>
            </trkpt>
            <trkpt lon="101.069413" lat="12.913569">
                <ele>121.263550</ele>
                <time>2014-06-29T05:46:12Z</time>
            </trkpt>
            <trkpt lon="101.069209" lat="12.913567">
                <ele>120.782837</ele>
                <time>2014-06-29T05:46:30Z</time>
            </trkpt>
            <trkpt lon="101.069187" lat="12.914024">
                <ele>124.147339</ele>
                <time>2014-06-29T05:46:46Z</time>
            </trkpt>
            <trkpt lon="101.069030" lat="12.914395">
                <ele>122.705444</ele>
                <time>2014-06-29T05:46:59Z</time>
            </trkpt>
            <trkpt lon="101.068107" lat="12.914487">
                <ele>117.418213</ele>
                <time>2014-06-29T05:47:32Z</time>
            </trkpt>
            <trkpt lon="101.067767" lat="12.915137">
                <ele>126.550659</ele>
                <time>2014-06-29T05:48:02Z</time>
            </trkpt>
            <trkpt lon="101.067518" lat="12.915310">
                <ele>126.069946</ele>
                <time>2014-06-29T05:48:16Z</time>
            </trkpt>
            <trkpt lon="101.067131" lat="12.915319">
                <ele>121.263550</ele>
                <time>2014-06-29T05:48:30Z</time>
            </trkpt>
            <trkpt lon="101.066840" lat="12.915457">
                <ele>112.611572</ele>
                <time>2014-06-29T05:48:43Z</time>
            </trkpt>
            <trkpt lon="101.066858" lat="12.915643">
                <ele>113.092285</ele>
                <time>2014-06-29T05:48:48Z</time>
            </trkpt>
            <trkpt lon="101.066974" lat="12.916177">
                <ele>105.401733</ele>
                <time>2014-06-29T05:49:04Z</time>
            </trkpt>
            <trkpt lon="101.068436" lat="12.917194">
                <ele>103.479004</ele>
                <time>2014-06-29T05:49:51Z</time>
            </trkpt>
            <trkpt lon="101.069201" lat="12.917589">
                <ele>102.037109</ele>
                <time>2014-06-29T05:50:11Z</time>
            </trkpt>
            <trkpt lon="101.070693" lat="12.917803">
                <ele>102.037109</ele>
                <time>2014-06-29T05:50:51Z</time>
            </trkpt>
            <trkpt lon="101.071215" lat="12.918141">
                <ele>103.479004</ele>
                <time>2014-06-29T05:51:07Z</time>
            </trkpt>
            <trkpt lon="101.073060" lat="12.919655">
                <ele>101.556397</ele>
                <time>2014-06-29T05:52:11Z</time>
            </trkpt>
            <trkpt lon="101.072912" lat="12.919577">
                <ele>101.556397</ele>
                <time>2014-06-29T05:52:20Z</time>
            </trkpt>
            <trkpt lon="101.072711" lat="12.920321">
                <ele>96.269287</ele>
                <time>2014-06-29T05:57:20Z</time>
            </trkpt>
            <trkpt lon="101.072568" lat="12.920555">
                <ele>95.307739</ele>
                <time>2014-06-29T05:57:35Z</time>
            </trkpt>
            <trkpt lon="101.072177" lat="12.920730">
                <ele>95.788452</ele>
                <time>2014-06-29T05:58:08Z</time>
            </trkpt>
            <trkpt lon="101.071856" lat="12.921403">
                <ele>100.595093</ele>
                <time>2014-06-29T05:59:19Z</time>
            </trkpt>
            <trkpt lon="101.071540" lat="12.921553">
                <ele>101.556397</ele>
                <time>2014-06-29T05:59:49Z</time>
            </trkpt>
            <trkpt lon="101.071205" lat="12.921386">
                <ele>106.843628</ele>
                <time>2014-06-29T06:00:06Z</time>
            </trkpt>
            <trkpt lon="101.070718" lat="12.921076">
                <ele>104.921020</ele>
                <time>2014-06-29T06:00:25Z</time>
            </trkpt>
            <trkpt lon="101.069923" lat="12.922431">
                <ele>107.324341</ele>
                <time>2014-06-29T06:01:41Z</time>
            </trkpt>
            <trkpt lon="101.069150" lat="12.923013">
                <ele>110.688843</ele>
                <time>2014-06-29T06:02:29Z</time>
            </trkpt>
            <trkpt lon="101.068317" lat="12.923803">
                <ele>112.611572</ele>
                <time>2014-06-29T06:03:07Z</time>
            </trkpt>
            <trkpt lon="101.068141" lat="12.924085">
                <ele>114.534180</ele>
                <time>2014-06-29T06:03:22Z</time>
            </trkpt>
            <trkpt lon="101.068359" lat="12.924796">
                <ele>117.418213</ele>
                <time>2014-06-29T06:03:55Z</time>
            </trkpt>
            <trkpt lon="101.068089" lat="12.925797">
                <ele>123.186157</ele>
                <time>2014-06-29T06:04:33Z</time>
            </trkpt>
            <trkpt lon="101.067605" lat="12.927045">
                <ele>122.705444</ele>
                <time>2014-06-29T06:05:18Z</time>
            </trkpt>
            <trkpt lon="101.066922" lat="12.926562">
                <ele>121.263550</ele>
                <time>2014-06-29T06:05:50Z</time>
            </trkpt>
            <trkpt lon="101.066318" lat="12.925571">
                <ele>123.666748</ele>
                <time>2014-06-29T06:06:15Z</time>
            </trkpt>
            <trkpt lon="101.065648" lat="12.925594">
                <ele>121.263550</ele>
                <time>2014-06-29T06:06:43Z</time>
            </trkpt>
            <trkpt lon="101.065195" lat="12.925304">
                <ele>119.821411</ele>
                <time>2014-06-29T06:07:03Z</time>
            </trkpt>
            <trkpt lon="101.064691" lat="12.924586">
                <ele>120.302124</ele>
                <time>2014-06-29T06:07:29Z</time>
            </trkpt>
            <trkpt lon="101.064515" lat="12.924123">
                <ele>119.340820</ele>
                <time>2014-06-29T06:07:45Z</time>
            </trkpt>
            <trkpt lon="101.064696" lat="12.923729">
                <ele>114.534180</ele>
                <time>2014-06-29T06:08:12Z</time>
            </trkpt>
            <trkpt lon="101.064429" lat="12.924285">
                <ele>122.705444</ele>
                <time>2014-06-29T06:08:47Z</time>
            </trkpt>
            <trkpt lon="101.063623" lat="12.925764">
                <ele>124.628052</ele>
                <time>2014-06-29T06:09:46Z</time>
            </trkpt>
            <trkpt lon="101.063548" lat="12.926711">
                <ele>125.108765</ele>
                <time>2014-06-29T06:10:24Z</time>
            </trkpt>
            <trkpt lon="101.063384" lat="12.926972">
                <ele>124.628052</ele>
                <time>2014-06-29T06:10:42Z</time>
            </trkpt>
            <trkpt lon="101.062176" lat="12.927889">
                <ele>126.550659</ele>
                <time>2014-06-29T06:11:42Z</time>
            </trkpt>
            <trkpt lon="101.062311" lat="12.928126">
                <ele>131.357300</ele>
                <time>2014-06-29T06:11:59Z</time>
            </trkpt>
            <trkpt lon="101.061171" lat="12.928865">
                <ele>124.628052</ele>
                <time>2014-06-29T06:12:43Z</time>
            </trkpt>
            <trkpt lon="101.060957" lat="12.928940">
                <ele>121.744141</ele>
                <time>2014-06-29T06:12:58Z</time>
            </trkpt>
            <trkpt lon="101.060603" lat="12.928554">
                <ele>124.628052</ele>
                <time>2014-06-29T06:13:32Z</time>
            </trkpt>
            <trkpt lon="101.060291" lat="12.928189">
                <ele>123.666748</ele>
                <time>2014-06-29T06:13:51Z</time>
            </trkpt>
            <trkpt lon="101.059715" lat="12.928598">
                <ele>123.666748</ele>
                <time>2014-06-29T06:14:24Z</time>
            </trkpt>
            <trkpt lon="101.059475" lat="12.928570">
                <ele>122.705444</ele>
                <time>2014-06-29T06:14:36Z</time>
            </trkpt>
            <trkpt lon="101.058953" lat="12.928890">
                <ele>122.705444</ele>
                <time>2014-06-29T06:14:58Z</time>
            </trkpt>
            <trkpt lon="101.058671" lat="12.928904">
                <ele>123.186157</ele>
                <time>2014-06-29T06:15:12Z</time>
            </trkpt>
            <trkpt lon="101.058016" lat="12.928073">
                <ele>127.992554</ele>
                <time>2014-06-29T06:16:01Z</time>
            </trkpt>
            <trkpt lon="101.056935" lat="12.926944">
                <ele>130.876709</ele>
                <time>2014-06-29T06:17:02Z</time>
            </trkpt>
            <trkpt lon="101.056565" lat="12.926483">
                <ele>129.915283</ele>
                <time>2014-06-29T06:17:20Z</time>
            </trkpt>
            <trkpt lon="101.058035" lat="12.925196">
                <ele>127.511963</ele>
                <time>2014-06-29T06:18:17Z</time>
            </trkpt>
            <trkpt lon="101.058484" lat="12.925118">
                <ele>127.511963</ele>
                <time>2014-06-29T06:18:31Z</time>
            </trkpt>
            <trkpt lon="101.059021" lat="12.924820">
                <ele>126.550659</ele>
                <time>2014-06-29T06:18:45Z</time>
            </trkpt>
            <trkpt lon="101.060668" lat="12.923137">
                <ele>117.418213</ele>
                <time>2014-06-29T06:19:27Z</time>
            </trkpt>
            <trkpt lon="101.060830" lat="12.922835">
                <ele>115.976196</ele>
                <time>2014-06-29T06:19:40Z</time>
            </trkpt>
            <trkpt lon="101.060373" lat="12.922665">
                <ele>118.860107</ele>
                <time>2014-06-29T06:20:12Z</time>
            </trkpt>
            <trkpt lon="101.059908" lat="12.922014">
                <ele>117.898804</ele>
                <time>2014-06-29T06:20:35Z</time>
            </trkpt>
            <trkpt lon="101.059407" lat="12.921655">
                <ele>118.379395</ele>
                <time>2014-06-29T06:20:53Z</time>
            </trkpt>
            <trkpt lon="101.058351" lat="12.921466">
                <ele>119.340820</ele>
                <time>2014-06-29T06:21:29Z</time>
            </trkpt>
            <trkpt lon="101.058309" lat="12.921334">
                <ele>119.340820</ele>
                <time>2014-06-29T06:21:36Z</time>
            </trkpt>
            <trkpt lon="101.058107" lat="12.921005">
                <ele>116.937500</ele>
                <time>2014-06-29T06:21:49Z</time>
            </trkpt>
            <trkpt lon="101.057430" lat="12.920869">
                <ele>114.053589</ele>
                <time>2014-06-29T06:22:05Z</time>
            </trkpt>
            <trkpt lon="101.057035" lat="12.920609">
                <ele>113.092285</ele>
                <time>2014-06-29T06:22:19Z</time>
            </trkpt>
            <trkpt lon="101.057094" lat="12.919489">
                <ele>110.688843</ele>
                <time>2014-06-29T06:22:50Z</time>
            </trkpt>
            <trkpt lon="101.056934" lat="12.918089">
                <ele>111.169556</ele>
                <time>2014-06-29T06:23:27Z</time>
            </trkpt>
            <trkpt lon="101.057069" lat="12.917264">
                <ele>110.688843</ele>
                <time>2014-06-29T06:23:51Z</time>
            </trkpt>
            <trkpt lon="101.056560" lat="12.916747">
                <ele>110.688843</ele>
                <time>2014-06-29T06:24:11Z</time>
            </trkpt>
            <trkpt lon="101.055647" lat="12.916877">
                <ele>110.688843</ele>
                <time>2014-06-29T06:24:38Z</time>
            </trkpt>
            <trkpt lon="101.054056" lat="12.916796">
                <ele>109.727661</ele>
                <time>2014-06-29T06:25:28Z</time>
            </trkpt>
            <trkpt lon="101.053870" lat="12.916948">
                <ele>109.727661</ele>
                <time>2014-06-29T06:25:38Z</time>
            </trkpt>
            <trkpt lon="101.053343" lat="12.916151">
                <ele>113.092285</ele>
                <time>2014-06-29T06:26:17Z</time>
            </trkpt>
            <trkpt lon="101.051968" lat="12.916509">
                <ele>114.534180</ele>
                <time>2014-06-29T06:26:54Z</time>
            </trkpt>
            <trkpt lon="101.051368" lat="12.916970">
                <ele>115.014893</ele>
                <time>2014-06-29T06:27:11Z</time>
            </trkpt>
            <trkpt lon="101.050954" lat="12.917718">
                <ele>116.456787</ele>
                <time>2014-06-29T06:27:30Z</time>
            </trkpt>
            <trkpt lon="101.050455" lat="12.919228">
                <ele>117.418213</ele>
                <time>2014-06-29T06:28:08Z</time>
            </trkpt>
            <trkpt lon="101.049997" lat="12.919918">
                <ele>118.860107</ele>
                <time>2014-06-29T06:28:29Z</time>
            </trkpt>
            <trkpt lon="101.049440" lat="12.920260">
                <ele>121.744141</ele>
                <time>2014-06-29T06:28:47Z</time>
            </trkpt>
            <trkpt lon="101.049039" lat="12.920312">
                <ele>125.589355</ele>
                <time>2014-06-29T06:29:04Z</time>
            </trkpt>
            <trkpt lon="101.047959" lat="12.920609">
                <ele>130.876709</ele>
                <time>2014-06-29T06:29:58Z</time>
            </trkpt>
            <trkpt lon="101.047657" lat="12.920815">
                <ele>131.357300</ele>
                <time>2014-06-29T06:30:14Z</time>
            </trkpt>
            <trkpt lon="101.047333" lat="12.921235">
                <ele>132.318603</ele>
                <time>2014-06-29T06:30:32Z</time>
            </trkpt>
            <trkpt lon="101.046946" lat="12.921813">
                <ele>130.876709</ele>
                <time>2014-06-29T06:30:55Z</time>
            </trkpt>
            <trkpt lon="101.047172" lat="12.922125">
                <ele>130.876709</ele>
                <time>2014-06-29T06:31:11Z</time>
            </trkpt>
            <trkpt lon="101.047630" lat="12.922444">
                <ele>133.279907</ele>
                <time>2014-06-29T06:31:18Z</time>
            </trkpt>
            <trkpt lon="101.047447" lat="12.923150">
                <ele>133.760498</ele>
                <time>2014-06-29T06:31:38Z</time>
            </trkpt>
            <trkpt lon="101.047784" lat="12.923764">
                <ele>131.837891</ele>
                <time>2014-06-29T06:31:59Z</time>
            </trkpt>
            <trkpt lon="101.048133" lat="12.924121">
                <ele>141.931763</ele>
                <time>2014-06-29T06:33:05Z</time>
            </trkpt>
            <trkpt lon="101.048111" lat="12.924118">
                <ele>137.605835</ele>
                <time>2014-06-29T06:37:36Z</time>
            </trkpt>
        </trkseg>
    </trk>
</gpx>